SFO weather

San Francisco International Airport
San Francisco, California, United States

Public forecast

Using degrees Fahrenheit for public forecast. Weather courtesy of forecast.io.

METAR (pilot weather report)

Retrieved 2018/08/20 02:56 UTC (41 minutes ago):

KSFO 200256Z 29014KT 9SM FEW005 SCT200 13/11 A2988 RMK AO2 SLP119 T01280111 55001

TAF (pilot weather forecast)

Forecast is more than 12 hours old.

Retrieved 2018/08/19 00:42 UTC (1 day ago):

TAF KSFO 192340Z 2000/2106 30017G22KT P6SM FEW008 FM200400 29012KT P6SM FEW007 FM200800 28007KT P6SM FEW007 FM201200 27005KT P6SM OVC008 FM201700 27006KT P6SM FEW010 FM202100 30016KT P6SM FEW012 FM210400 29010KT P6SM FEW010